Zenith Leader — 2ACU6 — position and weather

sailwx.info

Track history (hours):
 
Tides and Currents Weather Stations Pressure Air Temp Water Temp Dewpoint Dewpoint Depression Visibility Wind Speed Wind Dir Waves Ship Positions

Zenith Leader

Last reported at 2018-Jan-12 12:43 UTC. Time now 2018-Jan-18 16:13 UTC.
Position N 33°55' E 136°42'.

Length 200 m; draft 8.6 m.

Type: Cargo ship. MMSI: 235058697.

Date/timePositionNaut miles runAvg speedWind from/ knotsBaromVisibWave heightAir tempDewpointWater temp
2018-Jan-12 12:43N 33°55' E 136°42'4015.3
2018-Jan-12 10:07N 34°31' E 137°03'1 9.4
2018-Jan-12 10:00N 34°32' E 137°02'5 9.9
2018-Jan-12 09:30N 34°35' E 136°58'612.3
2018-Jan-12 09:01N 34°39' E 136°52'815.5
2018-Jan-12 08:30N 34°45' E 136°47'816.2
2018-Jan-12 08:01N 34°53' E 136°46'713.5
2018-Jan-12 07:30N 34°60' E 136°47'2 4.2
2018-Jan-12 07:00N 35°02' E 136°48'0 0.0
2018-Jan-12 06:29N 35°02' E 136°48'0 0.0
2018-Jan-12 05:59N 35°02' E 136°48'0 0.0
2018-Jan-12 05:29N 35°02' E 136°48'0 0.0
2018-Jan-12 04:59N 35°02' E 136°48'0 0.0
2018-Jan-12 04:29N 35°02' E 136°48'0 0.0
2018-Jan-12 03:59N 35°02' E 136°48'0 0.0
2018-Jan-12 03:29N 35°02' E 136°48'0 0.0
2018-Jan-12 02:59N 35°02' E 136°48'0 0.0
2018-Jan-12 02:29N 35°02' E 136°48'0 0.0
2018-Jan-12 01:59N 35°02' E 136°48'0 0.0
2018-Jan-12 01:29N 35°02' E 136°48'0 0.0
2018-Jan-12 00:59N 35°02' E 136°48'0 0.0
2018-Jan-12 00:29N 35°02' E 136°48'0 0.0
2018-Jan-11 23:59N 35°02' E 136°48'0 0.0
2018-Jan-11 23:29N 35°02' E 136°48'0 0.0
2018-Jan-11 22:59N 35°02' E 136°48'0 0.0
2018-Jan-11 22:29N 35°02' E 136°48'0 0.0
2018-Jan-11 21:59N 35°02' E 136°48'0 0.0
2018-Jan-11 21:29N 35°02' E 136°48'0 0.0
2018-Jan-11 20:59N 35°02' E 136°48'0 0.0
2018-Jan-11 20:29N 35°02' E 136°48'0 0.0
2018-Jan-11 19:59N 35°02' E 136°48'0 0.0
2018-Jan-11 19:29N 35°02' E 136°48'0 0.0
2018-Jan-11 18:59N 35°02' E 136°48'0 0.0
2018-Jan-11 18:29N 35°02' E 136°48'0 0.0
2018-Jan-11 17:59N 35°02' E 136°48'0 0.0
2018-Jan-11 17:29N 35°02' E 136°48'0 0.0
2018-Jan-11 16:59N 35°02' E 136°48'0 0.0
2018-Jan-11 16:29N 35°02' E 136°48'0 0.0
2018-Jan-11 15:59N 35°02' E 136°48'0 0.0
2018-Jan-11 15:29N 35°02' E 136°48'0 0.0
2018-Jan-11 14:59N 35°02' E 136°48'0 0.0
2018-Jan-11 14:29N 35°02' E 136°48'0 0.0
2018-Jan-11 13:56N 35°02' E 136°48'0 0.0
2018-Jan-11 13:29N 35°02' E 136°48'0 0.0
2018-Jan-11 12:59N 35°02' E 136°48'0 0.0
2018-Jan-11 12:30N 35°02' E 136°48'1 2.3
2018-Jan-11 12:00N 35°01' E 136°48'510.3
2018-Jan-11 11:30N 34°56' E 136°46'713.4
2018-Jan-11 11:00N 34°49' E 136°47'816.5
2018-Jan-11 10:30N 34°42' E 136°53'816.0
2018-Jan-11 10:00N 34°40' E 137°02'815.7
2018-Jan-11 09:30N 34°44' E 137°10'5 0.5
2018-Jan-10 22:07N 34°48' E 137°13'0 2.9
2018-Jan-10 22:00N 34°48' E 137°13'4 8.2
2018-Jan-10 21:30N 34°44' E 137°12'0 0.3
2018-Jan-10 20:55N 34°44' E 137°12'0 0.1
2018-Jan-10 20:25N 34°44' E 137°12'0 0.1
2018-Jan-10 19:37N 34°44' E 137°12'0 0.3
2018-Jan-10 19:25N 34°44' E 137°12'0 0.0
2018-Jan-10 18:55N 34°44' E 137°12'0 0.0
2018-Jan-10 18:25N 34°44' E 137°12'0 0.0
2018-Jan-10 17:56N 34°44' E 137°12'0 0.1
2018-Jan-10 17:26N 34°44' E 137°12'0 0.2
2018-Jan-10 16:56N 34°44' E 137°12'0 0.1
2018-Jan-10 16:23N 34°44' E 137°12'0 0.1
2018-Jan-10 15:59N 34°44' E 137°12'0 0.0
2018-Jan-10 15:26N 34°44' E 137°12'0 0.0
2018-Jan-10 14:56N 34°44' E 137°12'0 0.0
2018-Jan-10 14:26N 34°44' E 137°12'0 0.0
2018-Jan-10 13:56N 34°44' E 137°12'0 0.1
2018-Jan-10 13:26N 34°44' E 137°12'0 0.1
2018-Jan-10 12:56N 34°44' E 137°12'0 0.1
2018-Jan-10 12:26N 34°44' E 137°12'0 0.1
2018-Jan-10 11:56N 34°44' E 137°12'0 0.0
2018-Jan-10 11:26N 34°44' E 137°12'0 0.0
2018-Jan-10 10:56N 34°44' E 137°12'0 0.3
2018-Jan-10 10:26N 34°44' E 137°12'1 3.1
2018-Jan-10 10:00N 34°43' E 137°10'611.9
2018-Jan-10 09:30N 34°40' E 137°04'814.5
2018-Jan-10 08:58N 34°41' E 136°54'817.0
2018-Jan-10 08:30N 34°46' E 136°47'816.7
2018-Jan-10 08:00N 34°54' E 136°46'713.4
2018-Jan-10 07:31N 35°00' E 136°50'4 8.6
2018-Jan-10 07:00N 35°03' E 136°53'0 0.4
2018-Jan-10 06:28N 35°04' E 136°53'0 0.0
2018-Jan-10 05:58N 35°04' E 136°53'0 0.1
2018-Jan-10 05:28N 35°04' E 136°53'0 0.1
2018-Jan-10 04:58N 35°04' E 136°53'0 0.0
2018-Jan-10 04:28N 35°04' E 136°53'0 0.0
2018-Jan-10 03:58N 35°04' E 136°53'0 0.1
2018-Jan-10 03:28N 35°04' E 136°53'0 0.1
2018-Jan-10 02:58N 35°04' E 136°53'0 0.0
2018-Jan-10 02:28N 35°04' E 136°53'0 0.0
2018-Jan-10 01:58N 35°04' E 136°53'0 0.0
2018-Jan-10 01:28N 35°04' E 136°53'0 0.0
2018-Jan-10 00:58N 35°04' E 136°53'0 0.0
2018-Jan-10 00:28N 35°04' E 136°53'0 0.0
2018-Jan-09 23:58N 35°04' E 136°53'0 0.1
2018-Jan-09 23:28N 35°04' E 136°53'0 0.1
2018-Jan-09 22:58N 35°04' E 136°53'0 0.0
2018-Jan-09 22:28N 35°04' E 136°53'0 0.0
2018-Jan-09 22:00N 35°04' E 136°53'2 3.5
2018-Jan-09 21:30N 35°02' E 136°51'5 9.9
2018-Jan-09 21:00N 34°58' E 136°48'3 5.5
2018-Jan-09 20:29N 34°58' E 136°45'0 0.2
2018-Jan-09 19:59N 34°58' E 136°45'0 0.0
2018-Jan-09 19:26N 34°58' E 136°45'0 0.1
2018-Jan-09 18:56N 34°58' E 136°45'0 0.1
2018-Jan-09 18:29N 34°58' E 136°45'0 0.1
2018-Jan-09 17:59N 34°58' E 136°45'0 0.2
2018-Jan-09 17:29N 34°58' E 136°45'0 0.1
2018-Jan-09 16:56N 34°58' E 136°45'0 0.1
2018-Jan-09 16:29N 34°58' E 136°45'0 0.0
2018-Jan-09 15:56N 34°58' E 136°45'0 0.0
2018-Jan-09 15:29N 34°58' E 136°45'0 0.0
2018-Jan-09 14:59N 34°58' E 136°45'0 0.0
2018-Jan-09 14:29N 34°58' E 136°45'0 0.1
2018-Jan-09 13:59N 34°58' E 136°45'0 0.0
2018-Jan-09 13:26N 34°58' E 136°45'0 0.0
2018-Jan-09 12:59N 34°58' E 136°45'0 0.0
2018-Jan-09 12:29N 34°58' E 136°45'0 0.1
2018-Jan-09 11:59N 34°58' E 136°45'0 0.1
2018-Jan-09 11:26N 34°58' E 136°45'0 0.1
2018-Jan-09 10:56N 34°58' E 136°45'0 0.0
2018-Jan-09 10:26N 34°58' E 136°45'0 0.1
2018-Jan-09 09:59N 34°58' E 136°45'0 0.0
2018-Jan-09 09:29N 34°58' E 136°45'0 0.1
2018-Jan-09 08:59N 34°58' E 136°45'0 0.0
2018-Jan-09 08:29N 34°58' E 136°45'0 0.0
2018-Jan-09 08:00N 34°58' E 136°45'0 0.4
2018-Jan-09 07:30N 34°58' E 136°45'5 9.7
2018-Jan-09 07:00N 34°53' E 136°46'713.9
2018-Jan-09 06:30N 34°46' E 136°48'714.3
2018-Jan-09 06:00N 34°40' E 136°53'712.9
2018-Jan-09 05:30N 34°38' E 137°00'715.0
2018-Jan-09 05:00N 34°42' E 137°08'713.3
2018-Jan-09 04:29N 34°44' E 137°16'2 4.3
2018-Jan-09 03:56N 34°44' E 137°19'0 0.0
2018-Jan-09 03:08N 34°44' E 137°19'0 0.0
2018-Jan-09 02:56N 34°44' E 137°19'0 0.0
2018-Jan-09 02:26N 34°44' E 137°19'0 0.0
2018-Jan-09 01:50N 34°44' E 137°19'0 0.0
2018-Jan-09 01:20N 34°44' E 137°19'0 0.0
2018-Jan-09 00:56N 34°44' E 137°19'0 0.0
2018-Jan-09 00:20N 34°44' E 137°19'0 0.0
2018-Jan-08 23:44N 34°44' E 137°19'0 0.0
2018-Jan-08 23:26N 34°44' E 137°19'0 0.0
2018-Jan-08 22:56N 34°44' E 137°19'0 0.0
2018-Jan-08 22:14N 34°44' E 137°19'0 0.0
2018-Jan-08 21:56N 34°44' E 137°19'0 0.0
2018-Jan-08 21:26N 34°44' E 137°19'0 0.0
2018-Jan-08 20:56N 34°44' E 137°19'0 0.0
2018-Jan-08 20:26N 34°44' E 137°19'0 0.0
2018-Jan-08 19:56N 34°44' E 137°19'0 0.0
2018-Jan-08 19:26N 34°44' E 137°19'0 0.0
2018-Jan-08 18:56N 34°44' E 137°19'0 0.0
2018-Jan-08 18:20N 34°44' E 137°19'0 0.0
2018-Jan-08 17:50N 34°44' E 137°19'0 0.0
2018-Jan-08 17:14N 34°44' E 137°19'0 0.0
2018-Jan-08 16:56N 34°44' E 137°19'0 0.0
2018-Jan-08 16:26N 34°44' E 137°19'0 0.0
2018-Jan-08 15:56N 34°44' E 137°19'0 0.0
2018-Jan-08 15:26N 34°44' E 137°19'0 0.0
2018-Jan-08 14:56N 34°44' E 137°19'0 0.0
2018-Jan-08 14:26N 34°44' E 137°19'0 0.0
2018-Jan-08 13:56N 34°44' E 137°19'0 0.0
2018-Jan-08 13:14N 34°44' E 137°19'0 0.0
2018-Jan-08 12:56N 34°44' E 137°19'0 0.0
2018-Jan-08 12:26N 34°44' E 137°19'0 0.0
2018-Jan-08 11:56N 34°44' E 137°19'0 0.0
2018-Jan-08 11:26N 34°44' E 137°19'0 0.0
2018-Jan-08 10:56N 34°44' E 137°19'0 0.0
2018-Jan-08 10:26N 34°44' E 137°19'0 0.0
2018-Jan-08 09:56N 34°44' E 137°19'0 0.0
2018-Jan-08 09:26N 34°44' E 137°19'0 0.0
2018-Jan-08 08:50N 34°44' E 137°19'0 0.0
2018-Jan-08 08:26N 34°44' E 137°19'0 0.0
2018-Jan-08 07:56N 34°44' E 137°19'0 0.0
2018-Jan-08 07:26N 34°44' E 137°19'0 0.0
2018-Jan-08 06:56N 34°44' E 137°19'0 0.0
2018-Jan-08 06:20N 34°44' E 137°19'0 0.0
2018-Jan-08 05:56N 34°44' E 137°19'0 0.0
2018-Jan-08 05:26N 34°44' E 137°19'0 0.0
2018-Jan-08 04:56N 34°44' E 137°19'0 0.0
2018-Jan-08 04:30N 34°44' E 137°19'2 3.0
2018-Jan-08 04:00N 34°44' E 137°17'612.2
2018-Jan-08 03:30N 34°43' E 137°10'815.4
2018-Jan-08 03:00N 34°39' E 137°01'510.5
2018-Jan-08 02:30N 34°34' E 136°60'611.2
2018-Jan-08 02:00N 34°30' E 137°04'4 7.8
2018-Jan-08 01:27N 34°25' E 137°04'30 1.0
2018-Jan-06 19:24N 34°11' E 137°36'717.1
2018-Jan-06 19:00N 34°18' E 137°35'1214.8
2018-Jan-06 18:11N 34°28' E 137°44'315.2
2018-Jan-06 18:00N 34°28' E 137°47'815.1
2018-Jan-06 17:30N 34°28' E 137°56'714.4
2018-Jan-06 17:00N 34°28' E 138°05'714.0
2018-Jan-06 16:30N 34°29' E 138°13'814.5
2018-Jan-06 15:59N 34°30' E 138°22'715.0
2018-Jan-06 15:30N 34°30' E 138°31'815.7
2018-Jan-06 15:00N 34°29' E 138°41'816.0
2018-Jan-06 14:30N 34°30' E 138°51'715.0
2018-Jan-06 14:01N 34°32' E 138°59'816.1
2018-Jan-06 13:30N 34°38' E 139°05'815.5
2018-Jan-06 12:58N 34°45' E 139°12'816.2
2018-Jan-06 12:29N 34°50' E 139°19'816.2
2018-Jan-06 12:00N 34°55' E 139°26'816.4
2018-Jan-06 11:30N 35°00' E 139°34'816.7
2018-Jan-06 11:01N 35°05' E 139°42'713.8
2018-Jan-06 10:30N 35°11' E 139°46'5 9.7
2018-Jan-06 10:00N 35°16' E 139°46'611.6
2018-Jan-06 09:30N 35°21' E 139°42'612.3
2018-Jan-06 09:01N 35°28' E 139°43'2 3.2
2018-Jan-06 08:30N 35°28' E 139°41'0 0.0
2018-Jan-06 08:00N 35°28' E 139°41'0 0.0
2018-Jan-06 07:30N 35°28' E 139°41'0 0.0
2018-Jan-06 07:00N 35°28' E 139°41'0 0.0
2018-Jan-06 06:30N 35°28' E 139°41'0 0.0
2018-Jan-06 06:00N 35°28' E 139°41'0 0.0
2018-Jan-06 05:30N 35°28' E 139°41'0 0.0
2018-Jan-06 05:00N 35°28' E 139°41'0 0.0
2018-Jan-06 04:30N 35°28' E 139°41'0 0.0
2018-Jan-06 04:00N 35°28' E 139°41'0 0.0
2018-Jan-06 03:30N 35°28' E 139°41'0 0.0
2018-Jan-06 03:00N 35°28' E 139°41'0 0.0
2018-Jan-06 02:30N 35°28' E 139°41'0 0.0
2018-Jan-06 02:00N 35°28' E 139°41'0 0.0
2018-Jan-06 01:30N 35°28' E 139°41'0 0.0
2018-Jan-06 01:00N 35°28' E 139°41'0 0.0
2018-Jan-06 00:30N 35°28' E 139°41'0 0.0
2018-Jan-06 00:00N 35°28' E 139°41'0 0.0
2018-Jan-05 23:27N 35°28' E 139°41'0 0.0
2018-Jan-05 23:00N 35°28' E 139°41'0 0.1
2018-Jan-05 22:30N 35°28' E 139°41'1 1.3
2018-Jan-05 22:00N 35°28' E 139°42'3 6.3
2018-Jan-05 21:30N 35°26' E 139°44'3 5.5
2018-Jan-05 21:00N 35°24' E 139°46'511.0
2018-Jan-05 20:30N 35°19' E 139°44'611.2
2018-Jan-05 20:00N 35°14' E 139°47'4 8.9
2018-Jan-05 19:30N 35°09' E 139°46'611.1
2018-Jan-05 19:00N 35°04' E 139°44'612.8
2018-Jan-05 18:30N 34°58' E 139°41'714.8
2018-Jan-05 18:00N 34°51' E 139°43'816.9
2018-Jan-05 17:30N 34°43' E 139°47'916.9
2018-Jan-05 16:57N 34°43' E 139°59'817.5
2018-Jan-05 16:30N 34°47' E 140°07'917.1
2018-Jan-05 16:00N 34°49' E 140°17'18 0.7
2018-Jan-04 13:10N 35°04' E 140°29'315.4
2018-Jan-04 12:57N 35°02' E 140°26'714.8
2018-Jan-04 12:30N 34°59' E 140°19'714.3
2018-Jan-04 12:01N 34°55' E 140°12'714.4
2018-Jan-04 11:30N 34°51' E 140°05'713.9
2018-Jan-04 11:00N 34°47' E 139°57'714.5
2018-Jan-04 10:30N 34°45' E 139°49'815.9
2018-Jan-04 09:59N 34°42' E 139°39'816.3
2018-Jan-04 09:30N 34°39' E 139°31'815.9
2018-Jan-04 09:00N 34°37' E 139°21'815.7
2018-Jan-04 08:30N 34°34' E 139°13'815.2
2018-Jan-04 08:00N 34°30' E 139°04'816.0
2018-Jan-04 07:30N 34°26' E 138°56'916.4
2018-Jan-04 06:58N 34°22' E 138°46'816.2
2018-Jan-04 06:29N 34°18' E 138°38'816.1
2018-Jan-04 06:00N 34°15' E 138°30'815.5
2018-Jan-04 05:30N 34°11' E 138°22'815.3
2018-Jan-04 05:00N 34°07' E 138°14'  
Track history (hours):
 
Tides and Currents Weather Stations Pressure Air Temp Water Temp Dewpoint Dewpoint Depression Visibility Wind Speed Wind Dir Waves Ship Positions

Zenith Leader

Last reported at 2018-Jan-12 12:43 UTC. Time now 2018-Jan-18 16:13 UTC.
Position N 33°55' E 136°42'.

Length 200 m; draft 8.6 m.

Type: Cargo ship. MMSI: 235058697.

Date/timePositionNaut miles runAvg speedWind from/ knotsBaromVisibWave heightAir tempDewpointWater temp
2018-Jan-12 12:43N 33°55' E 136°42'4015.3
2018-Jan-12 10:07N 34°31' E 137°03'1 9.4
2018-Jan-12 10:00N 34°32' E 137°02'5 9.9
2018-Jan-12 09:30N 34°35' E 136°58'612.3
2018-Jan-12 09:01N 34°39' E 136°52'815.5
2018-Jan-12 08:30N 34°45' E 136°47'816.2
2018-Jan-12 08:01N 34°53' E 136°46'713.5
2018-Jan-12 07:30N 34°60' E 136°47'2 4.2
2018-Jan-12 07:00N 35°02' E 136°48'0 0.0
2018-Jan-12 06:29N 35°02' E 136°48'0 0.0
2018-Jan-12 05:59N 35°02' E 136°48'0 0.0
2018-Jan-12 05:29N 35°02' E 136°48'0 0.0
2018-Jan-12 04:59N 35°02' E 136°48'0 0.0
2018-Jan-12 04:29N 35°02' E 136°48'0 0.0
2018-Jan-12 03:59N 35°02' E 136°48'0 0.0
2018-Jan-12 03:29N 35°02' E 136°48'0 0.0
2018-Jan-12 02:59N 35°02' E 136°48'0 0.0
2018-Jan-12 02:29N 35°02' E 136°48'0 0.0
2018-Jan-12 01:59N 35°02' E 136°48'0 0.0
2018-Jan-12 01:29N 35°02' E 136°48'0 0.0
2018-Jan-12 00:59N 35°02' E 136°48'0 0.0
2018-Jan-12 00:29N 35°02' E 136°48'0 0.0
2018-Jan-11 23:59N 35°02' E 136°48'0 0.0
2018-Jan-11 23:29N 35°02' E 136°48'0 0.0
2018-Jan-11 22:59N 35°02' E 136°48'0 0.0
2018-Jan-11 22:29N 35°02' E 136°48'0 0.0
2018-Jan-11 21:59N 35°02' E 136°48'0 0.0
2018-Jan-11 21:29N 35°02' E 136°48'0 0.0
2018-Jan-11 20:59N 35°02' E 136°48'0 0.0
2018-Jan-11 20:29N 35°02' E 136°48'0 0.0
2018-Jan-11 19:59N 35°02' E 136°48'0 0.0
2018-Jan-11 19:29N 35°02' E 136°48'0 0.0
2018-Jan-11 18:59N 35°02' E 136°48'0 0.0
2018-Jan-11 18:29N 35°02' E 136°48'0 0.0
2018-Jan-11 17:59N 35°02' E 136°48'0 0.0
2018-Jan-11 17:29N 35°02' E 136°48'0 0.0
2018-Jan-11 16:59N 35°02' E 136°48'0 0.0
2018-Jan-11 16:29N 35°02' E 136°48'0 0.0
2018-Jan-11 15:59N 35°02' E 136°48'0 0.0
2018-Jan-11 15:29N 35°02' E 136°48'0 0.0
2018-Jan-11 14:59N 35°02' E 136°48'0 0.0
2018-Jan-11 14:29N 35°02' E 136°48'0 0.0
2018-Jan-11 13:56N 35°02' E 136°48'0 0.0
2018-Jan-11 13:29N 35°02' E 136°48'0 0.0
2018-Jan-11 12:59N 35°02' E 136°48'0 0.0
2018-Jan-11 12:30N 35°02' E 136°48'1 2.3
2018-Jan-11 12:00N 35°01' E 136°48'510.3
2018-Jan-11 11:30N 34°56' E 136°46'713.4
2018-Jan-11 11:00N 34°49' E 136°47'816.5
2018-Jan-11 10:30N 34°42' E 136°53'816.0
2018-Jan-11 10:00N 34°40' E 137°02'815.7
2018-Jan-11 09:30N 34°44' E 137°10'5 0.5
2018-Jan-10 22:07N 34°48' E 137°13'0 2.9
2018-Jan-10 22:00N 34°48' E 137°13'4 8.2
2018-Jan-10 21:30N 34°44' E 137°12'0 0.3
2018-Jan-10 20:55N 34°44' E 137°12'0 0.1
2018-Jan-10 20:25N 34°44' E 137°12'0 0.1
2018-Jan-10 19:37N 34°44' E 137°12'0 0.3
2018-Jan-10 19:25N 34°44' E 137°12'0 0.0
2018-Jan-10 18:55N 34°44' E 137°12'0 0.0
2018-Jan-10 18:25N 34°44' E 137°12'0 0.0
2018-Jan-10 17:56N 34°44' E 137°12'0 0.1
2018-Jan-10 17:26N 34°44' E 137°12'0 0.2
2018-Jan-10 16:56N 34°44' E 137°12'0 0.1
2018-Jan-10 16:23N 34°44' E 137°12'0 0.1
2018-Jan-10 15:59N 34°44' E 137°12'0 0.0
2018-Jan-10 15:26N 34°44' E 137°12'0 0.0
2018-Jan-10 14:56N 34°44' E 137°12'0 0.0
2018-Jan-10 14:26N 34°44' E 137°12'0 0.0
2018-Jan-10 13:56N 34°44' E 137°12'0 0.1
2018-Jan-10 13:26N 34°44' E 137°12'0 0.1
2018-Jan-10 12:56N 34°44' E 137°12'0 0.1
2018-Jan-10 12:26N 34°44' E 137°12'0 0.1
2018-Jan-10 11:56N 34°44' E 137°12'0 0.0
2018-Jan-10 11:26N 34°44' E 137°12'0 0.0
2018-Jan-10 10:56N 34°44' E 137°12'0 0.3
2018-Jan-10 10:26N 34°44' E 137°12'1 3.1
2018-Jan-10 10:00N 34°43' E 137°10'611.9
2018-Jan-10 09:30N 34°40' E 137°04'814.5
2018-Jan-10 08:58N 34°41' E 136°54'817.0
2018-Jan-10 08:30N 34°46' E 136°47'816.7
2018-Jan-10 08:00N 34°54' E 136°46'713.4
2018-Jan-10 07:31N 35°00' E 136°50'4 8.6
2018-Jan-10 07:00N 35°03' E 136°53'0 0.4
2018-Jan-10 06:28N 35°04' E 136°53'0 0.0
2018-Jan-10 05:58N 35°04' E 136°53'0 0.1
2018-Jan-10 05:28N 35°04' E 136°53'0 0.1
2018-Jan-10 04:58N 35°04' E 136°53'0 0.0
2018-Jan-10 04:28N 35°04' E 136°53'0 0.0
2018-Jan-10 03:58N 35°04' E 136°53'0 0.1
2018-Jan-10 03:28N 35°04' E 136°53'0 0.1
2018-Jan-10 02:58N 35°04' E 136°53'0 0.0
2018-Jan-10 02:28N 35°04' E 136°53'0 0.0
2018-Jan-10 01:58N 35°04' E 136°53'0 0.0
2018-Jan-10 01:28N 35°04' E 136°53'0 0.0
2018-Jan-10 00:58N 35°04' E 136°53'0 0.0
2018-Jan-10 00:28N 35°04' E 136°53'0 0.0
2018-Jan-09 23:58N 35°04' E 136°53'0 0.1
2018-Jan-09 23:28N 35°04' E 136°53'0 0.1
2018-Jan-09 22:58N 35°04' E 136°53'0 0.0
2018-Jan-09 22:28N 35°04' E 136°53'0 0.0
2018-Jan-09 22:00N 35°04' E 136°53'2 3.5
2018-Jan-09 21:30N 35°02' E 136°51'5 9.9
2018-Jan-09 21:00N 34°58' E 136°48'3 5.5
2018-Jan-09 20:29N 34°58' E 136°45'0 0.2
2018-Jan-09 19:59N 34°58' E 136°45'0 0.0
2018-Jan-09 19:26N 34°58' E 136°45'0 0.1
2018-Jan-09 18:56N 34°58' E 136°45'0 0.1
2018-Jan-09 18:29N 34°58' E 136°45'0 0.1
2018-Jan-09 17:59N 34°58' E 136°45'0 0.2
2018-Jan-09 17:29N 34°58' E 136°45'0 0.1
2018-Jan-09 16:56N 34°58' E 136°45'0 0.1
2018-Jan-09 16:29N 34°58' E 136°45'0 0.0
2018-Jan-09 15:56N 34°58' E 136°45'0 0.0
2018-Jan-09 15:29N 34°58' E 136°45'0 0.0
2018-Jan-09 14:59N 34°58' E 136°45'0 0.0
2018-Jan-09 14:29N 34°58' E 136°45'0 0.1
2018-Jan-09 13:59N 34°58' E 136°45'0 0.0
2018-Jan-09 13:26N 34°58' E 136°45'0 0.0
2018-Jan-09 12:59N 34°58' E 136°45'0 0.0
2018-Jan-09 12:29N 34°58' E 136°45'0 0.1
2018-Jan-09 11:59N 34°58' E 136°45'0 0.1
2018-Jan-09 11:26N 34°58' E 136°45'0 0.1
2018-Jan-09 10:56N 34°58' E 136°45'0 0.0
2018-Jan-09 10:26N 34°58' E 136°45'0 0.1
2018-Jan-09 09:59N 34°58' E 136°45'0 0.0
2018-Jan-09 09:29N 34°58' E 136°45'0 0.1
2018-Jan-09 08:59N 34°58' E 136°45'0 0.0
2018-Jan-09 08:29N 34°58' E 136°45'0 0.0
2018-Jan-09 08:00N 34°58' E 136°45'0 0.4
2018-Jan-09 07:30N 34°58' E 136°45'5 9.7
2018-Jan-09 07:00N 34°53' E 136°46'713.9
2018-Jan-09 06:30N 34°46' E 136°48'714.3
2018-Jan-09 06:00N 34°40' E 136°53'712.9
2018-Jan-09 05:30N 34°38' E 137°00'715.0
2018-Jan-09 05:00N 34°42' E 137°08'713.3
2018-Jan-09 04:29N 34°44' E 137°16'2 4.3
2018-Jan-09 03:56N 34°44' E 137°19'0 0.0
2018-Jan-09 03:08N 34°44' E 137°19'0 0.0
2018-Jan-09 02:56N 34°44' E 137°19'0 0.0
2018-Jan-09 02:26N 34°44' E 137°19'0 0.0
2018-Jan-09 01:50N 34°44' E 137°19'0 0.0
2018-Jan-09 01:20N 34°44' E 137°19'0 0.0
2018-Jan-09 00:56N 34°44' E 137°19'0 0.0
2018-Jan-09 00:20N 34°44' E 137°19'0 0.0
2018-Jan-08 23:44N 34°44' E 137°19'0 0.0
2018-Jan-08 23:26N 34°44' E 137°19'0 0.0
2018-Jan-08 22:56N 34°44' E 137°19'0 0.0
2018-Jan-08 22:14N 34°44' E 137°19'0 0.0
2018-Jan-08 21:56N 34°44' E 137°19'0 0.0
2018-Jan-08 21:26N 34°44' E 137°19'0 0.0
2018-Jan-08 20:56N 34°44' E 137°19'0 0.0
2018-Jan-08 20:26N 34°44' E 137°19'0 0.0
2018-Jan-08 19:56N 34°44' E 137°19'0 0.0
2018-Jan-08 19:26N 34°44' E 137°19'0 0.0
2018-Jan-08 18:56N 34°44' E 137°19'0 0.0
2018-Jan-08 18:20N 34°44' E 137°19'0 0.0
2018-Jan-08 17:50N 34°44' E 137°19'0 0.0
2018-Jan-08 17:14N 34°44' E 137°19'0 0.0
2018-Jan-08 16:56N 34°44' E 137°19'0 0.0
2018-Jan-08 16:26N 34°44' E 137°19'0 0.0
2018-Jan-08 15:56N 34°44' E 137°19'0 0.0
2018-Jan-08 15:26N 34°44' E 137°19'0 0.0
2018-Jan-08 14:56N 34°44' E 137°19'0 0.0
2018-Jan-08 14:26N 34°44' E 137°19'0 0.0
2018-Jan-08 13:56N 34°44' E 137°19'0 0.0
2018-Jan-08 13:14N 34°44' E 137°19'0 0.0
2018-Jan-08 12:56N 34°44' E 137°19'0 0.0
2018-Jan-08 12:26N 34°44' E 137°19'0 0.0
2018-Jan-08 11:56N 34°44' E 137°19'0 0.0
2018-Jan-08 11:26N 34°44' E 137°19'0 0.0
2018-Jan-08 10:56N 34°44' E 137°19'0 0.0
2018-Jan-08 10:26N 34°44' E 137°19'0 0.0
2018-Jan-08 09:56N 34°44' E 137°19'0 0.0
2018-Jan-08 09:26N 34°44' E 137°19'0 0.0
2018-Jan-08 08:50N 34°44' E 137°19'0 0.0
2018-Jan-08 08:26N 34°44' E 137°19'0 0.0
2018-Jan-08 07:56N 34°44' E 137°19'0 0.0
2018-Jan-08 07:26N 34°44' E 137°19'0 0.0
2018-Jan-08 06:56N 34°44' E 137°19'0 0.0
2018-Jan-08 06:20N 34°44' E 137°19'0 0.0
2018-Jan-08 05:56N 34°44' E 137°19'0 0.0
2018-Jan-08 05:26N 34°44' E 137°19'0 0.0
2018-Jan-08 04:56N 34°44' E 137°19'0 0.0
2018-Jan-08 04:30N 34°44' E 137°19'2 3.0
2018-Jan-08 04:00N 34°44' E 137°17'612.2
2018-Jan-08 03:30N 34°43' E 137°10'815.4
2018-Jan-08 03:00N 34°39' E 137°01'510.5
2018-Jan-08 02:30N 34°34' E 136°60'611.2
2018-Jan-08 02:00N 34°30' E 137°04'4 7.8
2018-Jan-08 01:27N 34°25' E 137°04'30 1.0
2018-Jan-06 19:24N 34°11' E 137°36'717.1
2018-Jan-06 19:00N 34°18' E 137°35'1214.8
2018-Jan-06 18:11N 34°28' E 137°44'315.2
2018-Jan-06 18:00N 34°28' E 137°47'815.1
2018-Jan-06 17:30N 34°28' E 137°56'714.4
2018-Jan-06 17:00N 34°28' E 138°05'714.0
2018-Jan-06 16:30N 34°29' E 138°13'814.5
2018-Jan-06 15:59N 34°30' E 138°22'715.0
2018-Jan-06 15:30N 34°30' E 138°31'815.7
2018-Jan-06 15:00N 34°29' E 138°41'816.0
2018-Jan-06 14:30N 34°30' E 138°51'715.0
2018-Jan-06 14:01N 34°32' E 138°59'816.1
2018-Jan-06 13:30N 34°38' E 139°05'815.5
2018-Jan-06 12:58N 34°45' E 139°12'816.2
2018-Jan-06 12:29N 34°50' E 139°19'816.2
2018-Jan-06 12:00N 34°55' E 139°26'816.4
2018-Jan-06 11:30N 35°00' E 139°34'816.7
2018-Jan-06 11:01N 35°05' E 139°42'713.8
2018-Jan-06 10:30N 35°11' E 139°46'5 9.7
2018-Jan-06 10:00N 35°16' E 139°46'611.6
2018-Jan-06 09:30N 35°21' E 139°42'612.3
2018-Jan-06 09:01N 35°28' E 139°43'2 3.2
2018-Jan-06 08:30N 35°28' E 139°41'0 0.0
2018-Jan-06 08:00N 35°28' E 139°41'0 0.0
2018-Jan-06 07:30N 35°28' E 139°41'0 0.0
2018-Jan-06 07:00N 35°28' E 139°41'0 0.0
2018-Jan-06 06:30N 35°28' E 139°41'0 0.0
2018-Jan-06 06:00N 35°28' E 139°41'0 0.0
2018-Jan-06 05:30N 35°28' E 139°41'0 0.0
2018-Jan-06 05:00N 35°28' E 139°41'0 0.0
2018-Jan-06 04:30N 35°28' E 139°41'0 0.0
2018-Jan-06 04:00N 35°28' E 139°41'0 0.0
2018-Jan-06 03:30N 35°28' E 139°41'0 0.0
2018-Jan-06 03:00N 35°28' E 139°41'0 0.0
2018-Jan-06 02:30N 35°28' E 139°41'0 0.0
2018-Jan-06 02:00N 35°28' E 139°41'0 0.0
2018-Jan-06 01:30N 35°28' E 139°41'0 0.0
2018-Jan-06 01:00N 35°28' E 139°41'0 0.0
2018-Jan-06 00:30N 35°28' E 139°41'0 0.0
2018-Jan-06 00:00N 35°28' E 139°41'0 0.0
2018-Jan-05 23:27N 35°28' E 139°41'0 0.0
2018-Jan-05 23:00N 35°28' E 139°41'0 0.1
2018-Jan-05 22:30N 35°28' E 139°41'1 1.3
2018-Jan-05 22:00N 35°28' E 139°42'3 6.3
2018-Jan-05 21:30N 35°26' E 139°44'3 5.5
2018-Jan-05 21:00N 35°24' E 139°46'511.0
2018-Jan-05 20:30N 35°19' E 139°44'611.2
2018-Jan-05 20:00N 35°14' E 139°47'4 8.9
2018-Jan-05 19:30N 35°09' E 139°46'611.1
2018-Jan-05 19:00N 35°04' E 139°44'612.8
2018-Jan-05 18:30N 34°58' E 139°41'714.8
2018-Jan-05 18:00N 34°51' E 139°43'816.9
2018-Jan-05 17:30N 34°43' E 139°47'916.9
2018-Jan-05 16:57N 34°43' E 139°59'817.5
2018-Jan-05 16:30N 34°47' E 140°07'917.1
2018-Jan-05 16:00N 34°49' E 140°17'18 0.7
2018-Jan-04 13:10N 35°04' E 140°29'315.4
2018-Jan-04 12:57N 35°02' E 140°26'714.8
2018-Jan-04 12:30N 34°59' E 140°19'714.3
2018-Jan-04 12:01N 34°55' E 140°12'714.4
2018-Jan-04 11:30N 34°51' E 140°05'713.9
2018-Jan-04 11:00N 34°47' E 139°57'714.5
2018-Jan-04 10:30N 34°45' E 139°49'815.9
2018-Jan-04 09:59N 34°42' E 139°39'816.3
2018-Jan-04 09:30N 34°39' E 139°31'815.9
2018-Jan-04 09:00N 34°37' E 139°21'815.7
2018-Jan-04 08:30N 34°34' E 139°13'815.2
2018-Jan-04 08:00N 34°30' E 139°04'816.0
2018-Jan-04 07:30N 34°26' E 138°56'916.4
2018-Jan-04 06:58N 34°22' E 138°46'816.2
2018-Jan-04 06:29N 34°18' E 138°38'816.1
2018-Jan-04 06:00N 34°15' E 138°30'815.5
2018-Jan-04 05:30N 34°11' E 138°22'815.3
2018-Jan-04 05:00N 34°07' E 138°14'  

Dump ship's entire track history